sensor_id;sensor_type;location;lat;lon;timestamp;P1;durP1;ratioP1;P2;durP2;ratioP2
9280;SDS011;4679;47.966;7.958;2024-01-10T00:00:23;30.40;;;17.17;;
9280;SDS011;4679;47.966;7.958;2024-01-10T00:02:23;37.43;;;18.10;;
9280;SDS011;4679;47.966;7.958;2024-01-10T00:04:25;31.70;;;17.17;;
9280;SDS011;4679;47.966;7.958;2024-01-10T00:06:27;33.53;;;16.83;;
9280;SDS011;4679;47.966;7.958;2024-01-10T00:08:28;32.80;;;15.97;;
9280;SDS011;4679;47.966;7.958;2024-01-10T00:10:31;30.27;;;16.80;;
9280;SDS011;4679;47.966;7.958;2024-01-10T00:12:33;32.20;;;17.47;;
9280;SDS011;4679;47.966;7.958;2024-01-10T07:26:54;34.10;;;16.93;;
9280;SDS011;4679;47.966;7.958;2024-01-10T07:28:57;39.23;;;17.60;;
9280;SDS011;4679;47.966;7.958;2024-01-10T07:30:58;35.23;;;18.67;;
9280;SDS011;4679;47.966;7.958;2024-01-10T07:33:00;36.10;;;16.70;;
9280;SDS011;4679;47.966;7.958;2024-01-10T07:35:02;37.90;;;19.17;;
9280;SDS011;4679;47.966;7.958;2024-01-10T07:37:04;28.60;;;17.13;;
9280;SDS011;4679;47.966;7.958;2024-01-10T07:39:06;41.23;;;20.90;;
9280;SDS011;4679;47.966;7.958;2024-01-10T07:41:08;39.30;;;21.27;;
9280;SDS011;4679;47.966;7.958;2024-01-10T07:43:13;43.47;;;23.30;;
9280;SDS011;4679;47.966;7.958;2024-01-10T07:45:15;44.47;;;21.63;;
9280;SDS011;4679;47.966;7.958;2024-01-10T07:47:16;29.50;;;17.13;;
9280;SDS011;4679;47.966;7.958;2024-01-10T07:49:18;32.70;;;16.50;;
9280;SDS011;4679;47.966;7.958;2024-01-10T07:51:21;32.23;;;17.53;;
9280;SDS011;4679;47.966;7.958;2024-01-10T07:53:23;38.70;;;18.70;;
9280;SDS011;4679;47.966;7.958;2024-01-10T07:55:26;34.43;;;17.20;;
9280;SDS011;4679;47.966;7.958;2024-01-10T07:57:29;36.00;;;18.73;;
9280;SDS011;4679;47.966;7.958;2024-01-10T07:59:32;35.67;;;19.77;;
9280;SDS011;4679;47.966;7.958;2024-01-10T08:01:34;39.43;;;18.97;;
9280;SDS011;4679;47.966;7.958;2024-01-10T08:03:36;35.40;;;18.17;;
9280;SDS011;4679;47.966;7.958;2024-01-10T08:05:38;35.00;;;18.00;;
9280;SDS011;4679;47.966;7.958;2024-01-10T08:07:39;37.30;;;17.13;;
9280;SDS011;4679;47.966;7.958;2024-01-10T08:09:41;36.73;;;17.77;;
9280;SDS011;4679;47.966;7.958;2024-01-10T08:11:42;32.23;;;17.20;;
9280;SDS011;4679;47.966;7.958;2024-01-10T08:13:44;32.20;;;17.20;;
9280;SDS011;4679;47.966;7.958;2024-01-10T08:15:47;32.27;;;15.93;;
9280;SDS011;4679;47.966;7.958;2024-01-10T08:17:48;27.60;;;15.90;;
9280;SDS011;4679;47.966;7.958;2024-01-10T08:19:50;31.27;;;16.70;;
9280;SDS011;4679;47.966;7.958;2024-01-10T08:21:52;36.07;;;18.53;;
9280;SDS011;4679;47.966;7.958;2024-01-10T08:23:53;32.80;;;18.00;;
9280;SDS011;4679;47.966;7.958;2024-01-10T08:25:54;35.40;;;18.10;;
9280;SDS011;4679;47.966;7.958;2024-01-10T08:27:56;40.80;;;20.33;;
9280;SDS011;4679;47.966;7.958;2024-01-10T08:29:58;47.40;;;21.77;;
9280;SDS011;4679;47.966;7.958;2024-01-10T08:32:00;60.27;;;26.93;;
9280;SDS011;4679;47.966;7.958;2024-01-10T08:34:04;54.00;;;24.53;;
9280;SDS011;4679;47.966;7.958;2024-01-10T08:36:06;38.90;;;18.70;;
9280;SDS011;4679;47.966;7.958;2024-01-10T08:38:09;35.07;;;17.63;;
9280;SDS011;4679;47.966;7.958;2024-01-10T08:40:11;36.50;;;16.43;;
9280;SDS011;4679;47.966;7.958;2024-01-10T08:42:15;33.67;;;16.47;;
9280;SDS011;4679;47.966;7.958;2024-01-10T08:44:16;36.00;;;18.17;;
9280;SDS011;4679;47.966;7.958;2024-01-10T08:46:18;35.17;;;16.70;;
9280;SDS011;4679;47.966;7.958;2024-01-10T08:48:22;30.13;;;15.60;;
9280;SDS011;4679;47.966;7.958;2024-01-10T08:50:22;30.73;;;17.20;;
9280;SDS011;4679;47.966;7.958;2024-01-10T08:52:24;33.47;;;16.93;;
9280;SDS011;4679;47.966;7.958;2024-01-10T08:54:24;30.50;;;15.70;;
9280;SDS011;4679;47.966;7.958;2024-01-10T08:56:27;30.53;;;16.37;;
9280;SDS011;4679;47.966;7.958;2024-01-10T08:58:27;34.67;;;17.47;;
9280;SDS011;4679;47.966;7.958;2024-01-10T09:00:29;32.37;;;17.40;;
9280;SDS011;4679;47.966;7.958;2024-01-10T09:02:31;40.77;;;20.17;;
9280;SDS011;4679;47.966;7.958;2024-01-10T09:04:34;40.23;;;18.97;;
9280;SDS011;4679;47.966;7.958;2024-01-10T09:06:36;38.27;;;18.93;;
9280;SDS011;4679;47.966;7.958;2024-01-10T09:08:36;45.47;;;19.13;;
9280;SDS011;4679;47.966;7.958;2024-01-10T09:10:39;39.00;;;18.10;;
9280;SDS011;4679;47.966;7.958;2024-01-10T09:12:40;37.37;;;19.87;;
9280;SDS011;4679;47.966;7.958;2024-01-10T09:14:43;35.50;;;18.63;;
9280;SDS011;4679;47.966;7.958;2024-01-10T09:16:44;35.03;;;19.23;;
9280;SDS011;4679;47.966;7.958;2024-01-10T09:18:45;33.90;;;18.20;;
9280;SDS011;4679;47.966;7.958;2024-01-10T09:20:50;38.83;;;20.60;;
9280;SDS011;4679;47.966;7.958;2024-01-10T09:22:51;42.07;;;20.47;;
9280;SDS011;4679;47.966;7.958;2024-01-10T09:24:53;37.87;;;20.87;;
9280;SDS011;4679;47.966;7.958;2024-01-10T09:26:54;36.03;;;19.57;;
9280;SDS011;4679;47.966;7.958;2024-01-10T09:28:56;37.03;;;18.87;;
9280;SDS011;4679;47.966;7.958;2024-01-10T09:30:58;36.37;;;18.40;;
9280;SDS011;4679;47.966;7.958;2024-01-10T09:32:59;33.80;;;18.53;;
9280;SDS011;4679;47.966;7.958;2024-01-10T09:35:01;39.80;;;19.10;;
9280;SDS011;4679;47.966;7.958;2024-01-10T09:37:04;33.50;;;19.13;;
9280;SDS011;4679;47.966;7.958;2024-01-10T09:39:05;40.93;;;19.27;;
9280;SDS011;4679;47.966;7.958;2024-01-10T09:41:13;37.70;;;19.40;;
9280;SDS011;4679;47.966;7.958;2024-01-10T09:43:15;39.57;;;19.13;;
9280;SDS011;4679;47.966;7.958;2024-01-10T09:45:17;37.53;;;19.80;;
9280;SDS011;4679;47.966;7.958;2024-01-10T09:47:20;37.57;;;20.73;;
9280;SDS011;4679;47.966;7.958;2024-01-10T09:49:21;39.43;;;19.87;;
9280;SDS011;4679;47.966;7.958;2024-01-10T09:51:23;39.23;;;21.27;;
9280;SDS011;4679;47.966;7.958;2024-01-10T09:53:25;41.67;;;20.47;;
9280;SDS011;4679;47.966;7.958;2024-01-10T09:55:28;42.73;;;20.40;;
9280;SDS011;4679;47.966;7.958;2024-01-10T09:57:34;42.67;;;21.90;;
9280;SDS011;4679;47.966;7.958;2024-01-10T09:59:36;39.73;;;19.50;;
9280;SDS011;4679;47.966;7.958;2024-01-10T10:01:38;39.30;;;20.97;;
9280;SDS011;4679;47.966;7.958;2024-01-10T10:03:40;41.17;;;20.83;;
9280;SDS011;4679;47.966;7.958;2024-01-10T10:05:44;43.10;;;19.90;;
9280;SDS011;4679;47.966;7.958;2024-01-10T10:07:46;41.20;;;21.67;;
9280;SDS011;4679;47.966;7.958;2024-01-10T10:09:50;36.37;;;20.47;;
9280;SDS011;4679;47.966;7.958;2024-01-10T10:11:53;38.67;;;21.87;;
9280;SDS011;4679;47.966;7.958;2024-01-10T10:13:55;39.37;;;20.13;;
9280;SDS011;4679;47.966;7.958;2024-01-10T10:15:57;37.60;;;20.40;;
9280;SDS011;4679;47.966;7.958;2024-01-10T10:17:59;36.37;;;20.10;;
9280;SDS011;4679;47.966;7.958;2024-01-10T10:20:02;45.40;;;20.47;;
9280;SDS011;4679;47.966;7.958;2024-01-10T10:22:07;38.77;;;21.30;;
9280;SDS011;4679;47.966;7.958;2024-01-10T10:24:09;40.13;;;21.73;;
9280;SDS011;4679;47.966;7.958;2024-01-10T10:26:15;37.83;;;20.20;;
9280;SDS011;4679;47.966;7.958;2024-01-10T10:28:20;44.50;;;20.10;;
9280;SDS011;4679;47.966;7.958;2024-01-10T10:30:22;36.10;;;19.80;;
9280;SDS011;4679;47.966;7.958;2024-01-10T10:32:23;39.43;;;21.53;;
9280;SDS011;4679;47.966;7.958;2024-01-10T10:34:30;37.50;;;20.53;;
9280;SDS011;4679;47.966;7.958;2024-01-10T10:36:32;41.03;;;21.13;;
9280;SDS011;4679;47.966;7.958;2024-01-10T10:38:34;38.13;;;22.10;;
9280;SDS011;4679;47.966;7.958;2024-01-10T10:40:36;35.63;;;19.43;;
9280;SDS011;4679;47.966;7.958;2024-01-10T10:42:40;42.23;;;21.57;;
9280;SDS011;4679;47.966;7.958;2024-01-10T10:44:45;41.53;;;20.37;;
9280;SDS011;4679;47.966;7.958;2024-01-10T10:46:49;41.53;;;20.57;;
9280;SDS011;4679;47.966;7.958;2024-01-10T10:48:51;36.43;;;19.77;;
9280;SDS011;4679;47.966;7.958;2024-01-10T10:50:54;37.50;;;21.47;;
9280;SDS011;4679;47.966;7.958;2024-01-10T10:53:03;38.87;;;18.97;;
9280;SDS011;4679;47.966;7.958;2024-01-10T10:55:05;34.23;;;18.77;;
9280;SDS011;4679;47.966;7.958;2024-01-10T10:57:07;33.13;;;19.77;;
9280;SDS011;4679;47.966;7.958;2024-01-10T10:59:11;37.83;;;19.23;;
9280;SDS011;4679;47.966;7.958;2024-01-10T11:01:13;33.47;;;19.00;;
9280;SDS011;4679;47.966;7.958;2024-01-10T11:03:16;35.40;;;19.57;;
9280;SDS011;4679;47.966;7.958;2024-01-10T11:05:18;36.80;;;19.20;;
9280;SDS011;4679;47.966;7.958;2024-01-10T11:07:21;33.63;;;19.13;;
9280;SDS011;4679;47.966;7.958;2024-01-10T11:09:22;39.40;;;20.67;;
9280;SDS011;4679;47.966;7.958;2024-01-10T11:11:27;34.23;;;19.40;;
9280;SDS011;4679;47.966;7.958;2024-01-10T11:13:45;36.37;;;19.20;;
9280;SDS011;4679;47.966;7.958;2024-01-10T11:16:07;30.23;;;17.90;;
9280;SDS011;4679;47.966;7.958;2024-01-10T11:18:29;35.30;;;19.03;;
9280;SDS011;4679;47.966;7.958;2024-01-10T11:21:03;31.07;;;18.97;;
9280;SDS011;4679;47.966;7.958;2024-01-10T11:23:22;34.80;;;18.77;;
9280;SDS011;4679;47.966;7.958;2024-01-10T11:25:39;35.67;;;19.77;;
9280;SDS011;4679;47.966;7.958;2024-01-10T11:27:41;36.10;;;20.43;;
9280;SDS011;4679;47.966;7.958;2024-01-10T11:29:45;32.73;;;19.13;;
9280;SDS011;4679;47.966;7.958;2024-01-10T11:31:51;35.20;;;19.93;;
9280;SDS011;4679;47.966;7.958;2024-01-10T11:33:53;36.20;;;18.90;;
9280;SDS011;4679;47.966;7.958;2024-01-10T11:36:07;33.37;;;19.03;;
9280;SDS011;4679;47.966;7.958;2024-01-10T11:38:10;36.77;;;19.77;;
9280;SDS011;4679;47.966;7.958;2024-01-10T11:40:12;35.13;;;18.53;;
9280;SDS011;4679;47.966;7.958;2024-01-10T11:42:20;33.90;;;19.23;;
9280;SDS011;4679;47.966;7.958;2024-01-10T11:44:26;32.47;;;19.13;;
9280;SDS011;4679;47.966;7.958;2024-01-10T11:46:27;31.17;;;18.70;;
9280;SDS011;4679;47.966;7.958;2024-01-10T11:48:30;31.47;;;18.43;;
9280;SDS011;4679;47.966;7.958;2024-01-10T11:50:33;34.77;;;19.37;;
9280;SDS011;4679;47.966;7.958;2024-01-10T11:52:36;35.10;;;20.60;;
9280;SDS011;4679;47.966;7.958;2024-01-10T11:54:39;37.63;;;19.70;;
9280;SDS011;4679;47.966;7.958;2024-01-10T11:56:42;31.50;;;18.53;;
9280;SDS011;4679;47.966;7.958;2024-01-10T11:58:54;35.20;;;19.37;;
9280;SDS011;4679;47.966;7.958;2024-01-10T12:00:55;29.33;;;16.83;;
9280;SDS011;4679;47.966;7.958;2024-01-10T12:02:57;31.67;;;17.57;;
9280;SDS011;4679;47.966;7.958;2024-01-10T12:05:00;29.03;;;16.97;;
9280;SDS011;4679;47.966;7.958;2024-01-10T12:07:02;28.97;;;17.53;;
9280;SDS011;4679;47.966;7.958;2024-01-10T12:09:03;28.80;;;17.60;;
9280;SDS011;4679;47.966;7.958;2024-01-10T12:11:09;28.47;;;17.27;;
9280;SDS011;4679;47.966;7.958;2024-01-10T12:13:10;29.67;;;17.57;;
9280;SDS011;4679;47.966;7.958;2024-01-10T12:15:12;30.27;;;18.43;;
9280;SDS011;4679;47.966;7.958;2024-01-10T12:17:15;34.13;;;18.57;;
9280;SDS011;4679;47.966;7.958;2024-01-10T12:19:18;28.63;;;16.87;;
9280;SDS011;4679;47.966;7.958;2024-01-10T12:21:20;30.83;;;16.93;;
9280;SDS011;4679;47.966;7.958;2024-01-10T12:23:22;32.77;;;18.10;;
9280;SDS011;4679;47.966;7.958;2024-01-10T12:25:23;33.57;;;19.83;;
9280;SDS011;4679;47.966;7.958;2024-01-10T12:27:25;33.57;;;18.77;;
9280;SDS011;4679;47.966;7.958;2024-01-10T12:29:27;32.60;;;19.17;;
9280;SDS011;4679;47.966;7.958;2024-01-10T12:31:28;34.27;;;19.17;;
9280;SDS011;4679;47.966;7.958;2024-01-10T12:33:31;40.07;;;20.97;;
9280;SDS011;4679;47.966;7.958;2024-01-10T12:35:32;41.03;;;21.00;;
9280;SDS011;4679;47.966;7.958;2024-01-10T12:37:35;33.93;;;19.27;;
9280;SDS011;4679;47.966;7.958;2024-01-10T12:39:37;32.70;;;18.73;;
9280;SDS011;4679;47.966;7.958;2024-01-10T12:41:40;34.10;;;19.13;;
9280;SDS011;4679;47.966;7.958;2024-01-10T12:43:42;36.27;;;19.37;;
9280;SDS011;4679;47.966;7.958;2024-01-10T12:45:43;33.63;;;19.87;;
9280;SDS011;4679;47.966;7.958;2024-01-10T12:47:46;32.90;;;18.83;;
9280;SDS011;4679;47.966;7.958;2024-01-10T12:49:48;32.43;;;18.83;;
9280;SDS011;4679;47.966;7.958;2024-01-10T12:51:49;32.87;;;17.93;;
9280;SDS011;4679;47.966;7.958;2024-01-10T12:53:52;31.53;;;19.37;;
9280;SDS011;4679;47.966;7.958;2024-01-10T12:55:53;34.00;;;21.40;;
9280;SDS011;4679;47.966;7.958;2024-01-10T12:57:55;31.83;;;19.77;;
9280;SDS011;4679;47.966;7.958;2024-01-10T12:59:59;33.90;;;20.57;;
9280;SDS011;4679;47.966;7.958;2024-01-10T13:02:06;31.20;;;19.17;;
9280;SDS011;4679;47.966;7.958;2024-01-10T13:04:08;30.87;;;18.97;;
9280;SDS011;4679;47.966;7.958;2024-01-10T13:06:09;34.37;;;19.00;;
9280;SDS011;4679;47.966;7.958;2024-01-10T13:08:10;32.93;;;19.50;;
9280;SDS011;4679;47.966;7.958;2024-01-10T13:10:13;32.43;;;19.50;;
9280;SDS011;4679;47.966;7.958;2024-01-10T13:12:15;37.53;;;20.27;;
9280;SDS011;4679;47.966;7.958;2024-01-10T13:14:16;33.53;;;19.10;;
9280;SDS011;4679;47.966;7.958;2024-01-10T13:16:18;33.20;;;19.47;;
9280;SDS011;4679;47.966;7.958;2024-01-10T13:18:19;30.70;;;18.40;;
9280;SDS011;4679;47.966;7.958;2024-01-10T13:20:20;32.53;;;19.50;;
9280;SDS011;4679;47.966;7.958;2024-01-10T13:22:22;34.40;;;18.77;;
9280;SDS011;4679;47.966;7.958;2024-01-10T13:24:23;32.70;;;18.80;;
9280;SDS011;4679;47.966;7.958;2024-01-10T13:26:26;30.70;;;18.83;;
9280;SDS011;4679;47.966;7.958;2024-01-10T13:28:28;31.53;;;19.03;;
9280;SDS011;4679;47.966;7.958;2024-01-10T13:30:30;32.70;;;19.07;;
9280;SDS011;4679;47.966;7.958;2024-01-10T13:32:31;27.37;;;18.10;;
9280;SDS011;4679;47.966;7.958;2024-01-10T13:34:33;30.93;;;18.47;;
9280;SDS011;4679;47.966;7.958;2024-01-10T13:36:35;31.10;;;19.73;;
9280;SDS011;4679;47.966;7.958;2024-01-10T13:38:36;32.70;;;20.50;;
9280;SDS011;4679;47.966;7.958;2024-01-10T13:40:38;28.23;;;17.20;;
9280;SDS011;4679;47.966;7.958;2024-01-10T13:42:40;29.90;;;17.90;;
9280;SDS011;4679;47.966;7.958;2024-01-10T13:44:43;30.20;;;17.53;;
9280;SDS011;4679;47.966;7.958;2024-01-10T13:46:45;29.60;;;17.70;;
9280;SDS011;4679;47.966;7.958;2024-01-10T13:48:48;29.27;;;16.90;;
9280;SDS011;4679;47.966;7.958;2024-01-10T13:50:49;30.53;;;17.07;;
9280;SDS011;4679;47.966;7.958;2024-01-10T13:52:51;29.50;;;17.20;;
9280;SDS011;4679;47.966;7.958;2024-01-10T13:54:53;30.60;;;18.73;;
9280;SDS011;4679;47.966;7.958;2024-01-10T13:56:56;26.93;;;17.50;;
9280;SDS011;4679;47.966;7.958;2024-01-10T13:58:59;30.10;;;17.60;;
9280;SDS011;4679;47.966;7.958;2024-01-10T14:01:00;32.43;;;18.23;;
9280;SDS011;4679;47.966;7.958;2024-01-10T14:03:02;30.43;;;17.53;;
9280;SDS011;4679;47.966;7.958;2024-01-10T14:05:04;30.07;;;18.47;;
9280;SDS011;4679;47.966;7.958;2024-01-10T14:07:06;33.27;;;17.70;;
9280;SDS011;4679;47.966;7.958;2024-01-10T14:09:07;25.53;;;16.53;;
9280;SDS011;4679;47.966;7.958;2024-01-10T14:11:10;27.17;;;16.83;;
9280;SDS011;4679;47.966;7.958;2024-01-10T14:13:11;29.83;;;18.30;;
9280;SDS011;4679;47.966;7.958;2024-01-10T14:15:14;29.17;;;17.57;;
9280;SDS011;4679;47.966;7.958;2024-01-10T14:17:16;28.73;;;17.07;;
9280;SDS011;4679;47.966;7.958;2024-01-10T14:19:17;32.40;;;18.50;;
9280;SDS011;4679;47.966;7.958;2024-01-10T14:21:19;26.67;;;17.57;;
9280;SDS011;4679;47.966;7.958;2024-01-10T14:23:21;29.33;;;17.87;;
9280;SDS011;4679;47.966;7.958;2024-01-10T14:25:23;30.20;;;17.57;;
9280;SDS011;4679;47.966;7.958;2024-01-10T14:27:24;28.00;;;17.00;;
9280;SDS011;4679;47.966;7.958;2024-01-10T14:29:26;25.30;;;16.13;;
9280;SDS011;4679;47.966;7.958;2024-01-10T14:31:29;26.67;;;17.73;;
9280;SDS011;4679;47.966;7.958;2024-01-10T14:33:29;28.90;;;16.57;;
9280;SDS011;4679;47.966;7.958;2024-01-10T14:35:31;30.67;;;16.87;;
9280;SDS011;4679;47.966;7.958;2024-01-10T14:37:33;30.10;;;17.87;;
9280;SDS011;4679;47.966;7.958;2024-01-10T14:39:36;26.17;;;16.23;;
9280;SDS011;4679;47.966;7.958;2024-01-10T14:41:40;32.73;;;19.27;;
9280;SDS011;4679;47.966;7.958;2024-01-10T14:43:41;27.23;;;16.27;;
9280;SDS011;4679;47.966;7.958;2024-01-10T14:45:42;28.33;;;16.77;;
9280;SDS011;4679;47.966;7.958;2024-01-10T14:47:45;29.13;;;16.70;;
9280;SDS011;4679;47.966;7.958;2024-01-10T14:49:47;28.63;;;16.87;;
9280;SDS011;4679;47.966;7.958;2024-01-10T14:51:47;25.97;;;16.70;;
9280;SDS011;4679;47.966;7.958;2024-01-10T14:53:49;27.07;;;16.07;;
9280;SDS011;4679;47.966;7.958;2024-01-10T14:55:51;28.33;;;17.03;;
9280;SDS011;4679;47.966;7.958;2024-01-10T14:57:52;29.77;;;17.50;;
9280;SDS011;4679;47.966;7.958;2024-01-10T14:59:54;27.37;;;16.37;;
9280;SDS011;4679;47.966;7.958;2024-01-10T15:01:56;27.73;;;16.47;;
9280;SDS011;4679;47.966;7.958;2024-01-10T15:03:57;27.07;;;15.60;;
9280;SDS011;4679;47.966;7.958;2024-01-10T15:05:59;29.67;;;16.80;;
9280;SDS011;4679;47.966;7.958;2024-01-10T15:08:01;31.80;;;18.30;;
9280;SDS011;4679;47.966;7.958;2024-01-10T15:10:02;27.07;;;15.83;;
9280;SDS011;4679;47.966;7.958;2024-01-10T15:12:05;29.57;;;16.77;;
9280;SDS011;4679;47.966;7.958;2024-01-10T15:14:07;26.40;;;15.57;;
9280;SDS011;4679;47.966;7.958;2024-01-10T15:16:09;26.30;;;17.00;;
9280;SDS011;4679;47.966;7.958;2024-01-10T15:18:12;27.10;;;17.13;;
9280;SDS011;4679;47.966;7.958;2024-01-10T15:20:16;29.37;;;17.37;;
9280;SDS011;4679;47.966;7.958;2024-01-10T15:22:17;30.20;;;16.47;;
9280;SDS011;4679;47.966;7.958;2024-01-10T15:24:19;27.83;;;16.33;;
9280;SDS011;4679;47.966;7.958;2024-01-10T15:26:21;26.77;;;16.53;;
9280;SDS011;4679;47.966;7.958;2024-01-10T15:28:23;30.17;;;18.30;;
9280;SDS011;4679;47.966;7.958;2024-01-10T15:30:23;30.53;;;19.17;;
9280;SDS011;4679;47.966;7.958;2024-01-10T15:32:25;33.53;;;17.73;;
9280;SDS011;4679;47.966;7.958;2024-01-10T15:34:28;32.67;;;19.60;;
9280;SDS011;4679;47.966;7.958;2024-01-10T15:36:31;33.77;;;19.10;;
9280;SDS011;4679;47.966;7.958;2024-01-10T15:38:32;35.13;;;19.77;;
9280;SDS011;4679;47.966;7.958;2024-01-10T15:40:34;33.70;;;19.97;;
9280;SDS011;4679;47.966;7.958;2024-01-10T15:42:35;30.57;;;18.67;;
9280;SDS011;4679;47.966;7.958;2024-01-10T15:44:38;33.37;;;19.07;;
9280;SDS011;4679;47.966;7.958;2024-01-10T15:46:40;38.50;;;19.70;;
9280;SDS011;4679;47.966;7.958;2024-01-10T15:48:42;33.90;;;19.30;;
9280;SDS011;4679;47.966;7.958;2024-01-10T15:50:44;32.67;;;18.90;;
9280;SDS011;4679;47.966;7.958;2024-01-10T15:52:47;33.00;;;19.87;;
9280;SDS011;4679;47.966;7.958;2024-01-10T15:54:49;31.80;;;18.20;;
9280;SDS011;4679;47.966;7.958;2024-01-10T15:56:53;28.63;;;17.17;;
9280;SDS011;4679;47.966;7.958;2024-01-10T15:58:55;31.90;;;19.33;;
9280;SDS011;4679;47.966;7.958;2024-01-10T16:00:57;32.87;;;18.63;;
9280;SDS011;4679;47.966;7.958;2024-01-10T16:02:58;31.40;;;22.23;;
9280;SDS011;4679;47.966;7.958;2024-01-10T16:05:00;39.50;;;21.73;;
9280;SDS011;4679;47.966;7.958;2024-01-10T16:07:02;39.63;;;23.77;;
9280;SDS011;4679;47.966;7.958;2024-01-10T16:09:05;40.53;;;24.30;;
9280;SDS011;4679;47.966;7.958;2024-01-10T16:11:05;39.60;;;23.17;;
9280;SDS011;4679;47.966;7.958;2024-01-10T16:13:07;41.73;;;22.63;;
9280;SDS011;4679;47.966;7.958;2024-01-10T16:15:08;39.97;;;23.67;;
9280;SDS011;4679;47.966;7.958;2024-01-10T16:17:10;40.00;;;23.13;;
9280;SDS011;4679;47.966;7.958;2024-01-10T16:19:12;42.90;;;23.73;;
9280;SDS011;4679;47.966;7.958;2024-01-10T16:21:13;38.77;;;22.23;;
9280;SDS011;4679;47.966;7.958;2024-01-10T16:23:15;37.50;;;21.87;;
9280;SDS011;4679;47.966;7.958;2024-01-10T16:25:18;33.73;;;21.50;;
9280;SDS011;4679;47.966;7.958;2024-01-10T16:27:19;32.67;;;18.57;;
9280;SDS011;4679;47.966;7.958;2024-01-10T16:29:21;30.93;;;18.77;;
9280;SDS011;4679;47.966;7.958;2024-01-10T16:31:23;35.23;;;20.00;;
9280;SDS011;4679;47.966;7.958;2024-01-10T16:33:23;37.07;;;22.03;;
9280;SDS011;4679;47.966;7.958;2024-01-10T16:35:25;33.60;;;19.77;;
9280;SDS011;4679;47.966;7.958;2024-01-10T16:37:26;32.77;;;19.27;;
9280;SDS011;4679;47.966;7.958;2024-01-10T16:39:28;31.13;;;18.73;;
9280;SDS011;4679;47.966;7.958;2024-01-10T16:41:31;34.90;;;19.90;;
9280;SDS011;4679;47.966;7.958;2024-01-10T16:43:33;32.57;;;19.13;;
9280;SDS011;4679;47.966;7.958;2024-01-10T16:45:35;28.07;;;17.53;;
9280;SDS011;4679;47.966;7.958;2024-01-10T16:47:36;31.00;;;17.80;;
9280;SDS011;4679;47.966;7.958;2024-01-10T16:49:38;28.30;;;18.93;;
9280;SDS011;4679;47.966;7.958;2024-01-10T16:51:39;30.60;;;17.47;;
9280;SDS011;4679;47.966;7.958;2024-01-10T16:53:41;28.17;;;17.67;;
9280;SDS011;4679;47.966;7.958;2024-01-10T16:55:41;28.27;;;17.20;;
9280;SDS011;4679;47.966;7.958;2024-01-10T16:57:44;32.43;;;17.93;;
9280;SDS011;4679;47.966;7.958;2024-01-10T16:59:46;32.67;;;18.63;;
9280;SDS011;4679;47.966;7.958;2024-01-10T17:01:48;30.73;;;17.67;;
9280;SDS011;4679;47.966;7.958;2024-01-10T17:03:49;35.33;;;20.70;;
9280;SDS011;4679;47.966;7.958;2024-01-10T17:05:51;33.83;;;18.33;;
9280;SDS011;4679;47.966;7.958;2024-01-10T17:07:53;37.50;;;20.93;;
9280;SDS011;4679;47.966;7.958;2024-01-10T17:09:55;36.33;;;23.00;;
9280;SDS011;4679;47.966;7.958;2024-01-10T17:11:57;38.13;;;23.43;;
9280;SDS011;4679;47.966;7.958;2024-01-10T17:13:59;42.10;;;25.87;;
9280;SDS011;4679;47.966;7.958;2024-01-10T17:16:01;38.70;;;25.57;;
9280;SDS011;4679;47.966;7.958;2024-01-10T17:18:03;41.80;;;25.60;;
9280;SDS011;4679;47.966;7.958;2024-01-10T17:20:05;36.20;;;23.60;;
9280;SDS011;4679;47.966;7.958;2024-01-10T17:22:09;35.20;;;20.70;;
9280;SDS011;4679;47.966;7.958;2024-01-10T17:24:09;31.30;;;19.80;;
9280;SDS011;4679;47.966;7.958;2024-01-10T17:26:12;39.43;;;22.93;;
9280;SDS011;4679;47.966;7.958;2024-01-10T17:28:12;41.13;;;22.73;;
9280;SDS011;4679;47.966;7.958;2024-01-10T17:30:16;42.97;;;22.97;;
9280;SDS011;4679;47.966;7.958;2024-01-10T17:32:17;35.97;;;22.23;;
9280;SDS011;4679;47.966;7.958;2024-01-10T17:34:19;39.17;;;20.53;;
9280;SDS011;4679;47.966;7.958;2024-01-10T17:36:20;36.27;;;21.23;;
9280;SDS011;4679;47.966;7.958;2024-01-10T17:38:22;38.97;;;21.47;;
9280;SDS011;4679;47.966;7.958;2024-01-10T17:40:23;31.37;;;20.37;;
9280;SDS011;4679;47.966;7.958;2024-01-10T17:42:25;34.43;;;19.40;;
9280;SDS011;4679;47.966;7.958;2024-01-10T17:44:27;43.87;;;22.93;;
9280;SDS011;4679;47.966;7.958;2024-01-10T17:46:30;33.70;;;20.03;;
9280;SDS011;4679;47.966;7.958;2024-01-10T17:48:32;35.57;;;20.07;;
9280;SDS011;4679;47.966;7.958;2024-01-10T17:50:33;31.13;;;18.30;;
9280;SDS011;4679;47.966;7.958;2024-01-10T17:52:36;29.77;;;18.97;;
9280;SDS011;4679;47.966;7.958;2024-01-10T17:54:38;38.10;;;21.73;;
9280;SDS011;4679;47.966;7.958;2024-01-10T17:56:39;38.27;;;22.60;;
9280;SDS011;4679;47.966;7.958;2024-01-10T17:58:41;36.17;;;21.67;;
9280;SDS011;4679;47.966;7.958;2024-01-10T18:00:43;37.30;;;21.50;;
9280;SDS011;4679;47.966;7.958;2024-01-10T18:02:46;37.37;;;20.47;;
9280;SDS011;4679;47.966;7.958;2024-01-10T18:04:47;35.27;;;20.60;;
9280;SDS011;4679;47.966;7.958;2024-01-10T18:06:48;37.17;;;21.53;;
9280;SDS011;4679;47.966;7.958;2024-01-10T18:08:50;34.43;;;20.43;;
9280;SDS011;4679;47.966;7.958;2024-01-10T18:10:51;37.70;;;22.17;;
9280;SDS011;4679;47.966;7.958;2024-01-10T18:12:52;33.93;;;20.00;;
9280;SDS011;4679;47.966;7.958;2024-01-10T18:14:54;33.87;;;19.13;;
9280;SDS011;4679;47.966;7.958;2024-01-10T18:16:56;31.93;;;18.73;;
9280;SDS011;4679;47.966;7.958;2024-01-10T18:18:59;32.03;;;19.37;;
9280;SDS011;4679;47.966;7.958;2024-01-10T18:21:02;31.97;;;19.20;;
9280;SDS011;4679;47.966;7.958;2024-01-10T18:23:03;39.43;;;20.67;;
9280;SDS011;4679;47.966;7.958;2024-01-10T18:25:05;34.80;;;20.70;;
9280;SDS011;4679;47.966;7.958;2024-01-10T18:27:07;38.73;;;20.63;;
9280;SDS011;4679;47.966;7.958;2024-01-10T18:29:08;35.27;;;20.57;;
9280;SDS011;4679;47.966;7.958;2024-01-10T18:31:12;36.13;;;20.43;;
9280;SDS011;4679;47.966;7.958;2024-01-10T18:33:14;37.57;;;21.53;;
9280;SDS011;4679;47.966;7.958;2024-01-10T18:35:17;38.00;;;22.27;;
9280;SDS011;4679;47.966;7.958;2024-01-10T18:37:21;40.97;;;23.97;;
9280;SDS011;4679;47.966;7.958;2024-01-10T18:39:22;40.13;;;22.47;;
9280;SDS011;4679;47.966;7.958;2024-01-10T18:41:24;36.40;;;20.30;;
9280;SDS011;4679;47.966;7.958;2024-01-10T18:43:28;35.37;;;20.80;;
9280;SDS011;4679;47.966;7.958;2024-01-10T18:45:30;40.10;;;21.40;;
9280;SDS011;4679;47.966;7.958;2024-01-10T18:47:31;39.47;;;20.00;;
9280;SDS011;4679;47.966;7.958;2024-01-10T18:49:33;34.53;;;20.03;;
9280;SDS011;4679;47.966;7.958;2024-01-10T18:51:36;37.10;;;20.33;;
9280;SDS011;4679;47.966;7.958;2024-01-10T18:53:37;37.37;;;21.07;;
9280;SDS011;4679;47.966;7.958;2024-01-10T18:55:39;34.47;;;19.97;;
9280;SDS011;4679;47.966;7.958;2024-01-10T18:57:40;33.10;;;18.53;;
9280;SDS011;4679;47.966;7.958;2024-01-10T18:59:41;34.90;;;20.33;;
9280;SDS011;4679;47.966;7.958;2024-01-10T19:01:42;34.20;;;18.63;;
9280;SDS011;4679;47.966;7.958;2024-01-10T19:03:47;35.43;;;18.13;;
9280;SDS011;4679;47.966;7.958;2024-01-10T19:05:48;32.23;;;18.17;;
9280;SDS011;4679;47.966;7.958;2024-01-10T19:07:51;35.07;;;19.20;;
9280;SDS011;4679;47.966;7.958;2024-01-10T19:09:53;36.93;;;19.53;;
9280;SDS011;4679;47.966;7.958;2024-01-10T19:11:54;29.50;;;17.67;;
9280;SDS011;4679;47.966;7.958;2024-01-10T19:13:56;38.43;;;20.97;;
9280;SDS011;4679;47.966;7.958;2024-01-10T19:15:58;37.73;;;19.90;;
9280;SDS011;4679;47.966;7.958;2024-01-10T19:17:59;38.07;;;19.97;;
9280;SDS011;4679;47.966;7.958;2024-01-10T19:20:01;31.23;;;18.67;;
9280;SDS011;4679;47.966;7.958;2024-01-10T19:22:04;36.73;;;20.40;;
9280;SDS011;4679;47.966;7.958;2024-01-10T19:24:07;36.37;;;19.70;;
9280;SDS011;4679;47.966;7.958;2024-01-10T19:26:18;37.77;;;20.57;;
9280;SDS011;4679;47.966;7.958;2024-01-10T19:28:21;39.23;;;20.63;;
9280;SDS011;4679;47.966;7.958;2024-01-10T19:30:22;49.03;;;24.50;;